Share

Aliceville, AL

Tuscaloosa Municipal (KTCL) Elev 171 ft | 33.22 °N, 87.61 °W | Change Station

Current weather conditions updated 6 minutes ago

Clear
Clear
59 °F
Feels Like 59 °F
N
0
Wind Variable Wind from North
Sunrise 6:17 AM
Sunset 7:26 PM
Moon Waning Gibbous

Tomorrow is forecast to be nearly the same temperature as today.

Pressure 30.15 in
Visibility 10.0 miles
Clouds Clear
Dew Point 45 °F
Humidity 60%
Rainfall 0.00 in
Snow Depth Not available.
UV 0 out of 16
Pollen 8.40 out of 12
Air Quality Not available.
Flu Activity Sporadic
METAR KTCL 200353Z AUTO 00000KT 10SM CLR 15/07 A3015 RMK AO2 SLP209 T01500072

More Conditions Fewer Conditions

Pressure 30.15 in
Visibility 10.0 miles
Clouds Clear
Dew Point 45 °F
Humidity 60%
Rainfall 0.00 in
Snow Depth Not available.
UV 0 out of 16
Pollen 8.40 out of 12
Air Quality Not available.
Flu Activity Sporadic
METAR KTCL 200353Z AUTO 00000KT 10SM CLR 15/07 A3015 RMK AO2 SLP209 T01500072

More Conditions Fewer Conditions

10-Day Weather Forecast

Almanac

Astronomy

Apr. 19, 2014 Rise Set
Actual Time 6:17 AM CDT 7:26 PM CDT
Civil Twilight 5:52 AM CDT 7:51 PM CDT
Nautical Twilight 5:21 AM CDT 8:22 PM CDT
Astronomical Twilight 4:50 AM CDT 8:53 PM CDT
Moon No Moon Rise 9:43 AM CDT (4/19)
Length of Visible Light 13h 59m
Length of Day
13h 08m
Tomorrow will be 1m 54s longer.
Waning Gibbous, 74% of the Moon is Illuminated
Today
Waning Gibbous
Apr 22
Last Quarter
Apr 29
New
May 6
First Quarter
May 14
Full

Today's Extremes

State Highs State Lows

Community

  • Cherry Blossoms
    Cherry Blossoms
  • White-Crowned Sparrow
    White-Crowned Sparrow
  • New Day
    New Day
  • Happy Easter!
    Happy Easter!
  • poppy bloom near Mazar-e-Sharif
    poppy bloom near Mazar-e-Sharif

WunderPhotos

Upload Photos

1,703,068 photos uploaded!

WunderBlogs® & News

Nearby

Snow Depth

Station Depth Elevation
No new snow has been reported.

Coastal Water Temperatures

Place Temperature
No Stations Reporting

Earthquake Activity

City Distance Mag. Time & Date
No recent earthquake activity has been reported nearby.
Minimum magnitude displayed is 2.5.

Nearby Weather Stations

There are no personal weather stations in this area.

What do you think?

We're not finished. Please let us know what you like, what you don't like, and what you are still missing.